sensor_id;sensor_type;location;lat;lon;timestamp;temperature;humidity
8778;DHT22;4425;50.872;4.712;2023-02-28T00:00:29;1.50;99.90
8778;DHT22;4425;50.872;4.712;2023-02-28T00:02:56;1.40;99.90
8778;DHT22;4425;50.872;4.712;2023-02-28T00:05:28;1.40;99.90
8778;DHT22;4425;50.872;4.712;2023-02-28T00:07:56;1.40;99.90
8778;DHT22;4425;50.872;4.712;2023-02-28T00:10:25;1.40;99.90
8778;DHT22;4425;50.872;4.712;2023-02-28T00:12:59;1.40;99.90
8778;DHT22;4425;50.872;4.712;2023-02-28T00:15:31;1.50;99.90
8778;DHT22;4425;50.872;4.712;2023-02-28T00:18:00;1.30;99.90
8778;DHT22;4425;50.872;4.712;2023-02-28T00:21:06;1.30;99.90
8778;DHT22;4425;50.872;4.712;2023-02-28T00:23:35;1.30;99.90
8778;DHT22;4425;50.872;4.712;2023-02-28T00:26:18;1.20;99.90
8778;DHT22;4425;50.872;4.712;2023-02-28T00:29:03;1.20;99.90
8778;DHT22;4425;50.872;4.712;2023-02-28T00:31:47;1.20;99.90
8778;DHT22;4425;50.872;4.712;2023-02-28T00:34:36;1.20;99.90
8778;DHT22;4425;50.872;4.712;2023-02-28T00:37:06;1.10;99.90
8778;DHT22;4425;50.872;4.712;2023-02-28T00:39:38;1.10;99.90
8778;DHT22;4425;50.872;4.712;2023-02-28T00:42:08;1.00;99.90
8778;DHT22;4425;50.872;4.712;2023-02-28T00:44:45;1.10;99.90
8778;DHT22;4425;50.872;4.712;2023-02-28T00:47:26;1.10;99.90
8778;DHT22;4425;50.872;4.712;2023-02-28T00:49:54;1.10;99.90
8778;DHT22;4425;50.872;4.712;2023-02-28T00:52:55;1.20;99.90
8778;DHT22;4425;50.872;4.712;2023-02-28T00:55:29;1.10;99.90
8778;DHT22;4425;50.872;4.712;2023-02-28T00:58:08;1.10;99.90
8778;DHT22;4425;50.872;4.712;2023-02-28T01:00:38;1.10;99.90
8778;DHT22;4425;50.872;4.712;2023-02-28T01:03:07;1.10;99.90
8778;DHT22;4425;50.872;4.712;2023-02-28T01:05:35;1.10;99.90
8778;DHT22;4425;50.872;4.712;2023-02-28T01:08:07;1.10;99.90
8778;DHT22;4425;50.872;4.712;2023-02-28T01:10:35;1.00;99.90
8778;DHT22;4425;50.872;4.712;2023-02-28T01:13:07;1.00;99.90
8778;DHT22;4425;50.872;4.712;2023-02-28T01:15:46;1.00;99.90
8778;DHT22;4425;50.872;4.712;2023-02-28T01:18:19;1.00;99.90
8778;DHT22;4425;50.872;4.712;2023-02-28T01:20:49;1.00;99.90
8778;DHT22;4425;50.872;4.712;2023-02-28T01:23:19;1.00;99.90
8778;DHT22;4425;50.872;4.712;2023-02-28T01:25:47;0.90;99.90
8778;DHT22;4425;50.872;4.712;2023-02-28T01:28:16;0.90;99.90
8778;DHT22;4425;50.872;4.712;2023-02-28T01:30:48;0.90;99.90
8778;DHT22;4425;50.872;4.712;2023-02-28T01:33:18;1.00;99.90
8778;DHT22;4425;50.872;4.712;2023-02-28T01:35:49;0.90;99.90
8778;DHT22;4425;50.872;4.712;2023-02-28T01:38:16;0.90;99.90
8778;DHT22;4425;50.872;4.712;2023-02-28T01:40:45;0.90;99.90
8778;DHT22;4425;50.872;4.712;2023-02-28T01:43:21;0.80;99.90
8778;DHT22;4425;50.872;4.712;2023-02-28T01:45:49;0.90;99.90
8778;DHT22;4425;50.872;4.712;2023-02-28T01:48:17;0.80;99.90
8778;DHT22;4425;50.872;4.712;2023-02-28T01:50:47;0.70;99.90
8778;DHT22;4425;50.872;4.712;2023-02-28T01:53:19;0.80;99.90
8778;DHT22;4425;50.872;4.712;2023-02-28T01:55:52;0.70;99.90
8778;DHT22;4425;50.872;4.712;2023-02-28T01:58:21;0.70;99.90
8778;DHT22;4425;50.872;4.712;2023-02-28T02:00:50;0.70;99.90
8778;DHT22;4425;50.872;4.712;2023-02-28T02:03:20;0.70;99.90
8778;DHT22;4425;50.872;4.712;2023-02-28T02:06:02;0.70;99.90
8778;DHT22;4425;50.872;4.712;2023-02-28T02:08:40;0.60;99.90
8778;DHT22;4425;50.872;4.712;2023-02-28T02:11:17;0.60;99.90
8778;DHT22;4425;50.872;4.712;2023-02-28T02:14:31;0.60;99.90
8778;DHT22;4425;50.872;4.712;2023-02-28T02:17:11;0.60;99.90
8778;DHT22;4425;50.872;4.712;2023-02-28T02:23:21;0.50;99.90
8778;DHT22;4425;50.872;4.712;2023-02-28T02:25:59;0.50;99.90
8778;DHT22;4425;50.872;4.712;2023-02-28T02:32:16;0.50;99.90
8778;DHT22;4425;50.872;4.712;2023-02-28T02:34:58;0.50;99.90
8778;DHT22;4425;50.872;4.712;2023-02-28T02:37:35;0.50;99.90
8778;DHT22;4425;50.872;4.712;2023-02-28T02:40:19;0.50;99.90
8778;DHT22;4425;50.872;4.712;2023-02-28T02:42:51;0.40;99.90
8778;DHT22;4425;50.872;4.712;2023-02-28T02:45:28;0.40;99.90
8778;DHT22;4425;50.872;4.712;2023-02-28T02:48:08;0.40;99.90
8778;DHT22;4425;50.872;4.712;2023-02-28T02:50:55;0.40;99.90
8778;DHT22;4425;50.872;4.712;2023-02-28T02:53:28;0.30;99.90
8778;DHT22;4425;50.872;4.712;2023-02-28T02:56:04;0.30;99.90
8778;DHT22;4425;50.872;4.712;2023-02-28T02:58:36;0.30;99.90
8778;DHT22;4425;50.872;4.712;2023-02-28T03:01:08;0.30;99.90
8778;DHT22;4425;50.872;4.712;2023-02-28T03:03:39;0.30;99.90
8778;DHT22;4425;50.872;4.712;2023-02-28T03:06:11;0.30;99.90
8778;DHT22;4425;50.872;4.712;2023-02-28T03:08:41;0.50;99.90
8778;DHT22;4425;50.872;4.712;2023-02-28T03:11:13;0.30;99.90
8778;DHT22;4425;50.872;4.712;2023-02-28T03:14:08;0.10;99.90
8778;DHT22;4425;50.872;4.712;2023-02-28T03:17:00;0.20;99.90
8778;DHT22;4425;50.872;4.712;2023-02-28T03:19:50;0.20;99.90
8778;DHT22;4425;50.872;4.712;2023-02-28T03:25:31;0.20;99.90
8778;DHT22;4425;50.872;4.712;2023-02-28T03:28:09;0.10;99.90
8778;DHT22;4425;50.872;4.712;2023-02-28T03:30:49;0.10;99.90
8778;DHT22;4425;50.872;4.712;2023-02-28T03:33:24;0.10;99.90
8778;DHT22;4425;50.872;4.712;2023-02-28T03:35:57;0.10;99.90
8778;DHT22;4425;50.872;4.712;2023-02-28T03:38:31;0.00;99.90
8778;DHT22;4425;50.872;4.712;2023-02-28T03:41:16;0.00;99.90
8778;DHT22;4425;50.872;4.712;2023-02-28T03:43:55;0.00;99.90
8778;DHT22;4425;50.872;4.712;2023-02-28T03:46:26;0.00;99.90
8778;DHT22;4425;50.872;4.712;2023-02-28T03:49:03;0.00;99.90
8778;DHT22;4425;50.872;4.712;2023-02-28T03:51:33;0.00;99.90
8778;DHT22;4425;50.872;4.712;2023-02-28T03:54:06;-0.10;99.90
8778;DHT22;4425;50.872;4.712;2023-02-28T03:56:40;-0.10;99.90
8778;DHT22;4425;50.872;4.712;2023-02-28T03:59:25;-0.10;99.90
8778;DHT22;4425;50.872;4.712;2023-02-28T04:02:15;-0.10;99.90
8778;DHT22;4425;50.872;4.712;2023-02-28T04:04:44;-0.10;99.90
8778;DHT22;4425;50.872;4.712;2023-02-28T04:07:14;-0.10;99.90
8778;DHT22;4425;50.872;4.712;2023-02-28T04:09:44;0.00;99.90
8778;DHT22;4425;50.872;4.712;2023-02-28T04:12:15;-0.10;99.90
8778;DHT22;4425;50.872;4.712;2023-02-28T04:14:45;0.00;99.90
8778;DHT22;4425;50.872;4.712;2023-02-28T04:17:12;0.00;99.90
8778;DHT22;4425;50.872;4.712;2023-02-28T04:19:39;0.00;99.90
8778;DHT22;4425;50.872;4.712;2023-02-28T04:22:09;0.00;99.90
8778;DHT22;4425;50.872;4.712;2023-02-28T04:24:37;0.00;99.90
8778;DHT22;4425;50.872;4.712;2023-02-28T04:27:08;0.00;99.90
8778;DHT22;4425;50.872;4.712;2023-02-28T04:29:55;-0.10;99.90
8778;DHT22;4425;50.872;4.712;2023-02-28T04:32:36;0.10;99.90
8778;DHT22;4425;50.872;4.712;2023-02-28T04:35:05;0.10;99.90
8778;DHT22;4425;50.872;4.712;2023-02-28T04:37:33;0.10;99.90
8778;DHT22;4425;50.872;4.712;2023-02-28T04:40:05;0.00;99.90
8778;DHT22;4425;50.872;4.712;2023-02-28T04:42:35;0.00;99.90
8778;DHT22;4425;50.872;4.712;2023-02-28T04:45:07;0.00;99.90
8778;DHT22;4425;50.872;4.712;2023-02-28T04:47:36;0.00;99.90
8778;DHT22;4425;50.872;4.712;2023-02-28T04:50:09;0.00;99.90
8778;DHT22;4425;50.872;4.712;2023-02-28T04:52:36;-0.10;99.90
8778;DHT22;4425;50.872;4.712;2023-02-28T04:55:04;-0.10;99.90
8778;DHT22;4425;50.872;4.712;2023-02-28T04:57:31;-0.10;99.90
8778;DHT22;4425;50.872;4.712;2023-02-28T04:59:58;-0.10;99.90
8778;DHT22;4425;50.872;4.712;2023-02-28T05:02:27;-0.10;99.90
8778;DHT22;4425;50.872;4.712;2023-02-28T05:04:55;-0.10;99.90
8778;DHT22;4425;50.872;4.712;2023-02-28T05:07:22;-0.10;99.90
8778;DHT22;4425;50.872;4.712;2023-02-28T05:09:54;-0.10;99.90
8778;DHT22;4425;50.872;4.712;2023-02-28T05:12:24;-0.10;99.90
8778;DHT22;4425;50.872;4.712;2023-02-28T05:14:53;-0.10;99.90
8778;DHT22;4425;50.872;4.712;2023-02-28T05:17:23;-0.10;99.90
8778;DHT22;4425;50.872;4.712;2023-02-28T05:19:52;-0.10;99.90
8778;DHT22;4425;50.872;4.712;2023-02-28T05:23:00;-0.10;99.90
8778;DHT22;4425;50.872;4.712;2023-02-28T05:25:43;-0.10;99.90
8778;DHT22;4425;50.872;4.712;2023-02-28T05:28:12;-0.10;99.90
8778;DHT22;4425;50.872;4.712;2023-02-28T05:30:39;-0.10;99.90
8778;DHT22;4425;50.872;4.712;2023-02-28T05:33:11;-0.10;99.90
8778;DHT22;4425;50.872;4.712;2023-02-28T05:35:44;-0.10;99.90
8778;DHT22;4425;50.872;4.712;2023-02-28T05:38:12;0.00;99.90
8778;DHT22;4425;50.872;4.712;2023-02-28T05:40:42;-0.10;99.90
8778;DHT22;4425;50.872;4.712;2023-02-28T05:43:13;0.00;99.90
8778;DHT22;4425;50.872;4.712;2023-02-28T05:45:40;0.00;99.90
8778;DHT22;4425;50.872;4.712;2023-02-28T05:48:08;0.00;99.90
8778;DHT22;4425;50.872;4.712;2023-02-28T05:50:44;-0.10;99.90
8778;DHT22;4425;50.872;4.712;2023-02-28T05:53:13;-0.20;99.90
8778;DHT22;4425;50.872;4.712;2023-02-28T05:55:44;-0.20;99.90
8778;DHT22;4425;50.872;4.712;2023-02-28T05:58:11;-0.20;99.90
8778;DHT22;4425;50.872;4.712;2023-02-28T06:00:39;-0.30;99.90
8778;DHT22;4425;50.872;4.712;2023-02-28T06:03:07;-0.30;99.90
8778;DHT22;4425;50.872;4.712;2023-02-28T06:05:34;-0.30;99.90
8778;DHT22;4425;50.872;4.712;2023-02-28T06:08:05;-0.30;99.90
8778;DHT22;4425;50.872;4.712;2023-02-28T06:10:36;-0.10;99.90
8778;DHT22;4425;50.872;4.712;2023-02-28T06:13:06;-0.20;99.90
8778;DHT22;4425;50.872;4.712;2023-02-28T06:15:33;-0.20;99.90
8778;DHT22;4425;50.872;4.712;2023-02-28T06:18:01;-0.20;99.90
8778;DHT22;4425;50.872;4.712;2023-02-28T06:20:28;-0.20;99.90
8778;DHT22;4425;50.872;4.712;2023-02-28T06:22:57;-0.20;99.90
8778;DHT22;4425;50.872;4.712;2023-02-28T06:25:27;-0.20;99.90
8778;DHT22;4425;50.872;4.712;2023-02-28T06:27:56;-0.20;99.90
8778;DHT22;4425;50.872;4.712;2023-02-28T06:30:28;-0.20;99.90
8778;DHT22;4425;50.872;4.712;2023-02-28T06:32:57;-0.20;99.90
8778;DHT22;4425;50.872;4.712;2023-02-28T06:35:26;-0.20;99.90
8778;DHT22;4425;50.872;4.712;2023-02-28T06:37:58;-0.20;99.90
8778;DHT22;4425;50.872;4.712;2023-02-28T06:40:34;-0.20;99.90
8778;DHT22;4425;50.872;4.712;2023-02-28T06:43:03;0.00;99.90
8778;DHT22;4425;50.872;4.712;2023-02-28T06:45:31;0.00;99.90
8778;DHT22;4425;50.872;4.712;2023-02-28T06:47:59;-0.10;99.90
8778;DHT22;4425;50.872;4.712;2023-02-28T06:50:30;-0.10;99.90
8778;DHT22;4425;50.872;4.712;2023-02-28T06:52:59;-0.10;99.90
8778;DHT22;4425;50.872;4.712;2023-02-28T06:55:29;-0.10;99.90
8778;DHT22;4425;50.872;4.712;2023-02-28T06:57:58;-0.10;99.90
8778;DHT22;4425;50.872;4.712;2023-02-28T07:00:42;-0.20;99.90
8778;DHT22;4425;50.872;4.712;2023-02-28T07:03:09;-0.20;99.90
8778;DHT22;4425;50.872;4.712;2023-02-28T07:05:38;-0.20;99.90
8778;DHT22;4425;50.872;4.712;2023-02-28T07:08:09;-0.10;99.90
8778;DHT22;4425;50.872;4.712;2023-02-28T07:10:41;-0.10;99.90
8778;DHT22;4425;50.872;4.712;2023-02-28T07:13:10;-0.10;99.90
8778;DHT22;4425;50.872;4.712;2023-02-28T07:15:53;-0.10;99.90
8778;DHT22;4425;50.872;4.712;2023-02-28T07:18:21;-0.10;99.90
8778;DHT22;4425;50.872;4.712;2023-02-28T07:20:51;-0.10;99.90
8778;DHT22;4425;50.872;4.712;2023-02-28T07:23:24;-0.10;99.90
8778;DHT22;4425;50.872;4.712;2023-02-28T07:25:56;-0.10;99.90
8778;DHT22;4425;50.872;4.712;2023-02-28T07:28:25;0.00;99.90
8778;DHT22;4425;50.872;4.712;2023-02-28T07:31:02;0.00;99.90
8778;DHT22;4425;50.872;4.712;2023-02-28T07:33:32;0.10;99.90
8778;DHT22;4425;50.872;4.712;2023-02-28T07:36:15;0.20;99.90
8778;DHT22;4425;50.872;4.712;2023-02-28T07:38:47;0.20;99.90
8778;DHT22;4425;50.872;4.712;2023-02-28T07:41:27;0.20;99.90
8778;DHT22;4425;50.872;4.712;2023-02-28T07:43:55;0.30;99.90
8778;DHT22;4425;50.872;4.712;2023-02-28T07:46:35;0.40;99.90
8778;DHT22;4425;50.872;4.712;2023-02-28T07:49:05;0.50;99.90
8778;DHT22;4425;50.872;4.712;2023-02-28T07:51:45;0.60;99.90
8778;DHT22;4425;50.872;4.712;2023-02-28T07:54:18;1.20;99.90
8778;DHT22;4425;50.872;4.712;2023-02-28T07:56:52;2.90;99.90
8778;DHT22;4425;50.872;4.712;2023-02-28T07:59:38;4.70;99.90
8778;DHT22;4425;50.872;4.712;2023-02-28T08:02:20;6.30;99.90
8778;DHT22;4425;50.872;4.712;2023-02-28T08:04:51;7.20;99.90
8778;DHT22;4425;50.872;4.712;2023-02-28T08:07:31;7.70;99.90
8778;DHT22;4425;50.872;4.712;2023-02-28T08:09:59;8.50;99.90
8778;DHT22;4425;50.872;4.712;2023-02-28T08:12:46;8.50;99.90
8778;DHT22;4425;50.872;4.712;2023-02-28T08:15:17;9.60;99.90
8778;DHT22;4425;50.872;4.712;2023-02-28T08:18:03;9.30;99.90
8778;DHT22;4425;50.872;4.712;2023-02-28T08:20:31;9.50;99.90
8778;DHT22;4425;50.872;4.712;2023-02-28T08:23:19;10.20;99.30
8778;DHT22;4425;50.872;4.712;2023-02-28T08:25:53;9.40;99.90
8778;DHT22;4425;50.872;4.712;2023-02-28T08:32:01;7.10;99.90
8778;DHT22;4425;50.872;4.712;2023-02-28T08:35:10;6.10;99.90
8778;DHT22;4425;50.872;4.712;2023-02-28T08:37:58;4.90;99.90
8778;DHT22;4425;50.872;4.712;2023-02-28T08:41:07;4.10;99.90
8778;DHT22;4425;50.872;4.712;2023-02-28T08:44:12;3.40;99.90
8778;DHT22;4425;50.872;4.712;2023-02-28T08:47:10;3.10;99.90
8778;DHT22;4425;50.872;4.712;2023-02-28T08:49:41;2.90;99.90
8778;DHT22;4425;50.872;4.712;2023-02-28T08:55:12;2.50;99.90
8778;DHT22;4425;50.872;4.712;2023-02-28T08:57:43;2.50;99.90
8778;DHT22;4425;50.872;4.712;2023-02-28T09:00:23;2.50;99.90
8778;DHT22;4425;50.872;4.712;2023-02-28T09:03:03;2.40;99.90
8778;DHT22;4425;50.872;4.712;2023-02-28T09:06:00;2.40;99.90
8778;DHT22;4425;50.872;4.712;2023-02-28T09:08:38;2.50;99.90
8778;DHT22;4425;50.872;4.712;2023-02-28T09:11:13;2.40;99.90
8778;DHT22;4425;50.872;4.712;2023-02-28T09:13:52;2.60;99.90
8778;DHT22;4425;50.872;4.712;2023-02-28T09:16:42;2.50;99.90
8778;DHT22;4425;50.872;4.712;2023-02-28T09:19:28;2.70;99.90
8778;DHT22;4425;50.872;4.712;2023-02-28T09:22:11;2.80;99.90
8778;DHT22;4425;50.872;4.712;2023-02-28T09:24:46;2.80;99.90
8778;DHT22;4425;50.872;4.712;2023-02-28T09:27:32;2.90;99.90
8778;DHT22;4425;50.872;4.712;2023-02-28T09:30:02;3.00;99.90
8778;DHT22;4425;50.872;4.712;2023-02-28T09:32:40;3.00;99.90
8778;DHT22;4425;50.872;4.712;2023-02-28T09:35:25;3.00;99.90
8778;DHT22;4425;50.872;4.712;2023-02-28T09:37:59;3.00;99.90
8778;DHT22;4425;50.872;4.712;2023-02-28T09:40:44;3.10;99.90
8778;DHT22;4425;50.872;4.712;2023-02-28T09:43:30;3.20;99.90
8778;DHT22;4425;50.872;4.712;2023-02-28T09:46:14;3.20;99.90
8778;DHT22;4425;50.872;4.712;2023-02-28T09:48:45;3.20;99.90
8778;DHT22;4425;50.872;4.712;2023-02-28T09:51:30;3.10;99.90
8778;DHT22;4425;50.872;4.712;2023-02-28T09:54:21;3.20;99.90
8778;DHT22;4425;50.872;4.712;2023-02-28T09:56:57;3.20;99.90
8778;DHT22;4425;50.872;4.712;2023-02-28T09:59:51;3.40;99.90
8778;DHT22;4425;50.872;4.712;2023-02-28T10:02:52;3.50;99.90
8778;DHT22;4425;50.872;4.712;2023-02-28T10:05:34;3.60;99.90
8778;DHT22;4425;50.872;4.712;2023-02-28T10:08:10;3.70;99.90
8778;DHT22;4425;50.872;4.712;2023-02-28T10:10:42;3.80;99.90
8778;DHT22;4425;50.872;4.712;2023-02-28T10:13:36;3.80;99.90
8778;DHT22;4425;50.872;4.712;2023-02-28T10:16:16;3.70;99.90
8778;DHT22;4425;50.872;4.712;2023-02-28T10:18:54;3.80;99.90
8778;DHT22;4425;50.872;4.712;2023-02-28T10:21:36;3.80;99.90
8778;DHT22;4425;50.872;4.712;2023-02-28T10:24:19;3.80;99.90
8778;DHT22;4425;50.872;4.712;2023-02-28T10:27:15;3.80;99.90
8778;DHT22;4425;50.872;4.712;2023-02-28T10:29:47;3.80;99.90
8778;DHT22;4425;50.872;4.712;2023-02-28T10:32:21;3.90;99.90
8778;DHT22;4425;50.872;4.712;2023-02-28T10:35:00;3.80;99.90
8778;DHT22;4425;50.872;4.712;2023-02-28T10:37:34;4.00;99.90
8778;DHT22;4425;50.872;4.712;2023-02-28T10:43:01;4.10;99.90
8778;DHT22;4425;50.872;4.712;2023-02-28T10:46:09;4.30;99.90
8778;DHT22;4425;50.872;4.712;2023-02-28T10:48:41;4.40;99.70
8778;DHT22;4425;50.872;4.712;2023-02-28T10:51:13;4.50;98.80
8778;DHT22;4425;50.872;4.712;2023-02-28T10:53:47;4.40;99.00
8778;DHT22;4425;50.872;4.712;2023-02-28T10:56:20;4.40;99.60
8778;DHT22;4425;50.872;4.712;2023-02-28T10:58:56;4.50;99.70
8778;DHT22;4425;50.872;4.712;2023-02-28T11:01:36;4.60;99.90
8778;DHT22;4425;50.872;4.712;2023-02-28T11:04:19;4.70;99.80
8778;DHT22;4425;50.872;4.712;2023-02-28T11:06:48;4.70;99.90
8778;DHT22;4425;50.872;4.712;2023-02-28T11:09:28;4.70;99.90
8778;DHT22;4425;50.872;4.712;2023-02-28T11:12:00;4.80;99.90
8778;DHT22;4425;50.872;4.712;2023-02-28T11:14:31;4.90;99.40
8778;DHT22;4425;50.872;4.712;2023-02-28T11:17:12;4.90;99.10
8778;DHT22;4425;50.872;4.712;2023-02-28T11:19:49;5.00;98.30
8778;DHT22;4425;50.872;4.712;2023-02-28T11:22:26;5.10;98.80
8778;DHT22;4425;50.872;4.712;2023-02-28T11:24:59;5.20;97.70
8778;DHT22;4425;50.872;4.712;2023-02-28T11:27:45;5.30;97.40
8778;DHT22;4425;50.872;4.712;2023-02-28T11:30:46;5.40;96.30
8778;DHT22;4425;50.872;4.712;2023-02-28T11:33:44;5.30;95.90
8778;DHT22;4425;50.872;4.712;2023-02-28T11:36:30;5.30;96.00
8778;DHT22;4425;50.872;4.712;2023-02-28T11:39:21;5.30;96.00
8778;DHT22;4425;50.872;4.712;2023-02-28T11:42:16;5.40;95.60
8778;DHT22;4425;50.872;4.712;2023-02-28T11:44:56;5.20;95.90
8778;DHT22;4425;50.872;4.712;2023-02-28T11:47:47;5.20;95.80
8778;DHT22;4425;50.872;4.712;2023-02-28T11:50:42;5.30;95.60
8778;DHT22;4425;50.872;4.712;2023-02-28T11:53:44;5.20;95.90
8778;DHT22;4425;50.872;4.712;2023-02-28T11:56:28;5.30;96.10
8778;DHT22;4425;50.872;4.712;2023-02-28T11:59:14;5.30;96.50
8778;DHT22;4425;50.872;4.712;2023-02-28T12:02:04;5.50;95.70
8778;DHT22;4425;50.872;4.712;2023-02-28T12:04:46;5.60;95.50
8778;DHT22;4425;50.872;4.712;2023-02-28T12:07:25;5.60;95.50
8778;DHT22;4425;50.872;4.712;2023-02-28T12:10:14;5.80;95.80
8778;DHT22;4425;50.872;4.712;2023-02-28T12:13:05;5.60;95.20
8778;DHT22;4425;50.872;4.712;2023-02-28T12:15:47;5.50;95.30
8778;DHT22;4425;50.872;4.712;2023-02-28T12:18:32;5.60;95.50
8778;DHT22;4425;50.872;4.712;2023-02-28T12:21:25;5.70;95.10
8778;DHT22;4425;50.872;4.712;2023-02-28T12:24:44;5.60;95.40
8778;DHT22;4425;50.872;4.712;2023-02-28T12:27:30;5.60;95.20
8778;DHT22;4425;50.872;4.712;2023-02-28T12:30:17;5.40;95.00
8778;DHT22;4425;50.872;4.712;2023-02-28T12:32:49;5.70;95.00
8778;DHT22;4425;50.872;4.712;2023-02-28T12:35:24;5.80;94.50
8778;DHT22;4425;50.872;4.712;2023-02-28T12:38:04;5.80;94.70
8778;DHT22;4425;50.872;4.712;2023-02-28T12:40:44;5.70;95.00
8778;DHT22;4425;50.872;4.712;2023-02-28T12:43:32;5.70;95.10
8778;DHT22;4425;50.872;4.712;2023-02-28T12:46:09;5.80;95.10
8778;DHT22;4425;50.872;4.712;2023-02-28T12:48:49;5.80;94.90
8778;DHT22;4425;50.872;4.712;2023-02-28T12:51:35;5.90;94.70
8778;DHT22;4425;50.872;4.712;2023-02-28T12:54:16;6.00;94.60
8778;DHT22;4425;50.872;4.712;2023-02-28T12:56:56;6.20;94.50
8778;DHT22;4425;50.872;4.712;2023-02-28T12:59:39;6.20;94.60
8778;DHT22;4425;50.872;4.712;2023-02-28T13:02:32;6.20;94.30
8778;DHT22;4425;50.872;4.712;2023-02-28T13:05:25;6.30;94.10
8778;DHT22;4425;50.872;4.712;2023-02-28T13:08:08;6.00;93.50
8778;DHT22;4425;50.872;4.712;2023-02-28T13:10:41;5.90;93.60
8778;DHT22;4425;50.872;4.712;2023-02-28T13:13:15;6.10;93.40
8778;DHT22;4425;50.872;4.712;2023-02-28T13:15:58;6.20;93.50
8778;DHT22;4425;50.872;4.712;2023-02-28T13:18:31;6.10;93.60
8778;DHT22;4425;50.872;4.712;2023-02-28T13:21:01;6.00;93.50
8778;DHT22;4425;50.872;4.712;2023-02-28T13:29:39;6.10;94.00
8778;DHT22;4425;50.872;4.712;2023-02-28T13:32:34;6.10;93.70
8778;DHT22;4425;50.872;4.712;2023-02-28T13:35:42;6.20;93.50
8778;DHT22;4425;50.872;4.712;2023-02-28T13:38:39;5.90;93.60
8778;DHT22;4425;50.872;4.712;2023-02-28T13:41:44;6.10;94.20
8778;DHT22;4425;50.872;4.712;2023-02-28T13:44:16;5.90;94.30
8778;DHT22;4425;50.872;4.712;2023-02-28T13:47:23;5.90;94.30
8778;DHT22;4425;50.872;4.712;2023-02-28T13:49:53;6.00;93.90
8778;DHT22;4425;50.872;4.712;2023-02-28T13:52:26;6.10;93.70
8778;DHT22;4425;50.872;4.712;2023-02-28T13:55:18;6.00;94.10
8778;DHT22;4425;50.872;4.712;2023-02-28T13:58:03;6.00;94.00
8778;DHT22;4425;50.872;4.712;2023-02-28T14:00:45;6.10;94.00
8778;DHT22;4425;50.872;4.712;2023-02-28T14:06:20;6.30;93.60
8778;DHT22;4425;50.872;4.712;2023-02-28T14:08:55;6.20;93.40
8778;DHT22;4425;50.872;4.712;2023-02-28T14:11:30;6.40;93.50
8778;DHT22;4425;50.872;4.712;2023-02-28T14:14:00;6.10;93.30
8778;DHT22;4425;50.872;4.712;2023-02-28T14:16:39;5.90;93.70
8778;DHT22;4425;50.872;4.712;2023-02-28T14:19:21;6.00;94.20
8778;DHT22;4425;50.872;4.712;2023-02-28T14:22:04;6.10;94.20
8778;DHT22;4425;50.872;4.712;2023-02-28T14:25:08;6.10;94.00
8778;DHT22;4425;50.872;4.712;2023-02-28T14:27:43;6.00;94.30
8778;DHT22;4425;50.872;4.712;2023-02-28T14:30:42;5.90;94.30
8778;DHT22;4425;50.872;4.712;2023-02-28T14:33:57;6.00;94.40
8778;DHT22;4425;50.872;4.712;2023-02-28T14:36:32;6.10;94.40
8778;DHT22;4425;50.872;4.712;2023-02-28T14:39:06;6.10;94.60
8778;DHT22;4425;50.872;4.712;2023-02-28T14:41:37;5.90;94.60
8778;DHT22;4425;50.872;4.712;2023-02-28T14:44:16;6.00;94.90
8778;DHT22;4425;50.872;4.712;2023-02-28T14:47:03;6.00;94.80
8778;DHT22;4425;50.872;4.712;2023-02-28T14:49:36;6.10;94.70
8778;DHT22;4425;50.872;4.712;2023-02-28T14:52:15;6.20;94.60
8778;DHT22;4425;50.872;4.712;2023-02-28T14:54:44;6.10;94.60
8778;DHT22;4425;50.872;4.712;2023-02-28T14:57:28;6.20;94.60
8778;DHT22;4425;50.872;4.712;2023-02-28T15:00:10;6.30;94.60
8778;DHT22;4425;50.872;4.712;2023-02-28T15:02:41;6.20;94.70
8778;DHT22;4425;50.872;4.712;2023-02-28T15:05:27;6.00;95.40
8778;DHT22;4425;50.872;4.712;2023-02-28T15:08:12;6.00;95.10
8778;DHT22;4425;50.872;4.712;2023-02-28T15:11:12;6.10;95.10
8778;DHT22;4425;50.872;4.712;2023-02-28T15:13:41;6.00;95.00
8778;DHT22;4425;50.872;4.712;2023-02-28T15:16:19;6.00;95.00
8778;DHT22;4425;50.872;4.712;2023-02-28T15:18:51;5.90;94.80
8778;DHT22;4425;50.872;4.712;2023-02-28T15:21:22;5.90;95.00
8778;DHT22;4425;50.872;4.712;2023-02-28T15:23:55;6.00;94.80
8778;DHT22;4425;50.872;4.712;2023-02-28T15:26:28;5.80;95.00
8778;DHT22;4425;50.872;4.712;2023-02-28T15:29:03;5.80;95.30
8778;DHT22;4425;50.872;4.712;2023-02-28T15:31:33;5.80;95.60
8778;DHT22;4425;50.872;4.712;2023-02-28T15:34:04;5.80;95.80
8778;DHT22;4425;50.872;4.712;2023-02-28T15:36:35;5.90;95.70
8778;DHT22;4425;50.872;4.712;2023-02-28T15:39:19;5.90;95.80
8778;DHT22;4425;50.872;4.712;2023-02-28T15:41:48;5.80;96.00
8778;DHT22;4425;50.872;4.712;2023-02-28T15:44:33;5.80;96.20
8778;DHT22;4425;50.872;4.712;2023-02-28T15:47:03;5.90;96.30
8778;DHT22;4425;50.872;4.712;2023-02-28T15:49:39;5.80;96.40
8778;DHT22;4425;50.872;4.712;2023-02-28T15:52:15;5.90;96.50
8778;DHT22;4425;50.872;4.712;2023-02-28T15:54:49;5.80;96.70
8778;DHT22;4425;50.872;4.712;2023-02-28T15:57:20;5.70;96.60
8778;DHT22;4425;50.872;4.712;2023-02-28T15:59:51;5.60;96.70
8778;DHT22;4425;50.872;4.712;2023-02-28T16:02:28;5.60;96.70
8778;DHT22;4425;50.872;4.712;2023-02-28T16:04:59;5.50;96.80
8778;DHT22;4425;50.872;4.712;2023-02-28T16:07:29;5.40;96.80
8778;DHT22;4425;50.872;4.712;2023-02-28T16:10:07;5.40;97.00
8778;DHT22;4425;50.872;4.712;2023-02-28T16:12:38;5.40;97.10
8778;DHT22;4425;50.872;4.712;2023-02-28T16:15:20;5.50;97.30
8778;DHT22;4425;50.872;4.712;2023-02-28T16:17:52;5.40;96.90
8778;DHT22;4425;50.872;4.712;2023-02-28T16:20:36;5.30;97.00
8778;DHT22;4425;50.872;4.712;2023-02-28T16:23:06;5.30;97.00
8778;DHT22;4425;50.872;4.712;2023-02-28T16:25:41;5.40;96.50
8778;DHT22;4425;50.872;4.712;2023-02-28T16:28:18;5.30;96.60
8778;DHT22;4425;50.872;4.712;2023-02-28T16:31:01;5.30;97.00
8778;DHT22;4425;50.872;4.712;2023-02-28T16:33:31;5.20;97.10
8778;DHT22;4425;50.872;4.712;2023-02-28T16:36:02;5.20;97.20
8778;DHT22;4425;50.872;4.712;2023-02-28T16:38:31;5.20;97.10
8778;DHT22;4425;50.872;4.712;2023-02-28T16:41:03;5.30;97.20
8778;DHT22;4425;50.872;4.712;2023-02-28T16:43:31;5.20;97.30
8778;DHT22;4425;50.872;4.712;2023-02-28T16:46:02;5.10;97.40
8778;DHT22;4425;50.872;4.712;2023-02-28T16:48:31;5.10;97.50
8778;DHT22;4425;50.872;4.712;2023-02-28T16:50:59;5.00;97.70
8778;DHT22;4425;50.872;4.712;2023-02-28T16:53:34;4.90;97.80
8778;DHT22;4425;50.872;4.712;2023-02-28T16:56:17;4.90;97.80
8778;DHT22;4425;50.872;4.712;2023-02-28T16:58:48;4.90;98.00
8778;DHT22;4425;50.872;4.712;2023-02-28T17:01:16;4.80;98.10
8778;DHT22;4425;50.872;4.712;2023-02-28T17:03:48;4.80;98.20
8778;DHT22;4425;50.872;4.712;2023-02-28T17:06:23;4.90;98.20
8778;DHT22;4425;50.872;4.712;2023-02-28T17:08:55;4.80;98.10
8778;DHT22;4425;50.872;4.712;2023-02-28T17:11:28;4.70;98.30
8778;DHT22;4425;50.872;4.712;2023-02-28T17:13:56;4.60;98.50
8778;DHT22;4425;50.872;4.712;2023-02-28T17:16:27;4.60;98.70
8778;DHT22;4425;50.872;4.712;2023-02-28T17:18:59;4.50;98.80
8778;DHT22;4425;50.872;4.712;2023-02-28T17:21:29;4.40;98.90
8778;DHT22;4425;50.872;4.712;2023-02-28T17:24:01;4.40;99.30
8778;DHT22;4425;50.872;4.712;2023-02-28T17:26:42;4.30;99.20
8778;DHT22;4425;50.872;4.712;2023-02-28T17:29:14;4.40;99.30
8778;DHT22;4425;50.872;4.712;2023-02-28T17:31:54;4.30;99.30
8778;DHT22;4425;50.872;4.712;2023-02-28T17:34:23;4.30;99.40
8778;DHT22;4425;50.872;4.712;2023-02-28T17:36:51;4.30;99.60
8778;DHT22;4425;50.872;4.712;2023-02-28T17:39:20;4.20;99.80
8778;DHT22;4425;50.872;4.712;2023-02-28T17:41:51;4.20;99.90
8778;DHT22;4425;50.872;4.712;2023-02-28T17:44:19;4.00;99.90
8778;DHT22;4425;50.872;4.712;2023-02-28T17:46:49;4.00;99.90